»·PEaware :: N43700 KSBP-KSMX

N43700 :: KSBP-KSMX

FLIGHT INFORMATION

Flight Status: Arrived
Operator: Privately registered:
United States
More flights under this callsign
Pilot: Valens B. (42578)
Aircraft: PIPER PA-28 CHEROKEE ARCHER
(P28A)
More flights by this aircraft type
Origin: KSBP San Luis Co Regl
United States
Destination: KSMX Santa Maria Pub/Capt Hancock
United States
More flights between these airports :: More routes between these airports
Route:
File this flight plan on PilotEdge
Remarks:
Altitude:
(Current/Filed)
5,500ft
Speed:
(Current/Filed)
120kts
Departed: 12-Mar-23 05:30 PM
Arrived: 12-Mar-23 05:52 PM
Distance/Time
Traveled:
22nm/0:22
Distance/Time
To Go:
Arrived

Flight Plot

Page will automatically refresh every two minutes.


Map Options




Map Legend


Flown Route
Filed Route
Departure Airport
Arrival Airport
Navaid (VOR, NDB)
Fix

Horizontal Profiles

Position Reports

Time Latitude Longitude Heading Altitude Ground
Speed
12-Mar-23 17:02 35.240405 -120.643204 124 215ft 0kts
12-Mar-23 17:03 35.240405 -120.643204 124 215ft 0kts
12-Mar-23 17:04 35.240405 -120.643204 124 215ft 0kts
12-Mar-23 17:05 35.240405 -120.643204 124 215ft 0kts
12-Mar-23 17:06 35.240405 -120.643204 124 215ft 0kts
12-Mar-23 17:07 35.240405 -120.643204 124 215ft 0kts
12-Mar-23 17:09 35.240405 -120.643204 124 215ft 0kts
12-Mar-23 17:10 35.240405 -120.643204 124 215ft 0kts
12-Mar-23 17:11 35.240405 -120.643204 124 215ft 0kts
12-Mar-23 17:12 35.240405 -120.643204 124 215ft 0kts
12-Mar-23 17:13 35.240405 -120.643204 124 215ft 0kts
12-Mar-23 17:14 35.240405 -120.643204 124 215ft 0kts
12-Mar-23 17:15 35.240405 -120.643204 124 215ft 0kts
12-Mar-23 17:16 35.240405 -120.643204 124 215ft 0kts
12-Mar-23 17:17 35.240405 -120.643204 124 215ft 0kts
12-Mar-23 17:18 35.240405 -120.643204 124 215ft 0kts
12-Mar-23 17:19 35.240405 -120.643204 124 215ft 0kts
12-Mar-23 17:20 35.240405 -120.643204 124 215ft 0kts
12-Mar-23 17:21 35.240405 -120.643204 124 215ft 0kts
12-Mar-23 17:22 35.240405 -120.643204 124 215ft 0kts
12-Mar-23 17:23 35.240018 -120.643818 205 215ft 2kts
12-Mar-23 17:24 35.237954 -120.640342 119 215ft 16kts
12-Mar-23 17:25 35.235127 -120.635254 125 215ft 22kts
12-Mar-23 17:26 35.233257 -120.632324 190 215ft 0kts
12-Mar-23 17:27 35.233257 -120.632324 190 215ft 0kts
12-Mar-23 17:28 35.233257 -120.632324 190 215ft 0kts
12-Mar-23 17:29 35.233019 -120.632444 217 215ft 6kts
12-Mar-23 17:30 35.239872 -120.645003 298 564ft 77kts
12-Mar-23 17:31 35.233946 -120.651288 140 1366ft 83kts
12-Mar-23 17:32 35.216691 -120.633468 147 2161ft 75kts
12-Mar-23 17:32 35.205714 -120.617701 120 2868ft 70kts
12-Mar-23 17:34 35.188521 -120.593399 139 3256ft 87kts
12-Mar-23 17:35 35.168738 -120.572607 142 2652ft 104kts
12-Mar-23 17:36 35.153192 -120.543861 118 2681ft 97kts
12-Mar-23 17:37 35.136347 -120.520429 145 2894ft 89kts
12-Mar-23 17:37 35.118284 -120.507010 161 2919ft 90kts
12-Mar-23 17:39 35.092332 -120.499993 178 2604ft 78kts
12-Mar-23 17:40 35.070941 -120.493106 169 2437ft 86kts
12-Mar-23 17:41 35.050052 -120.494184 187 1844ft 81kts
12-Mar-23 17:41 35.032589 -120.487159 151 1460ft 80kts
12-Mar-23 17:42 35.017371 -120.468434 135 1171ft 79kts
12-Mar-23 17:43 35.000931 -120.450456 154 1278ft 79kts
12-Mar-23 17:45 34.978352 -120.436818 161 1307ft 82kts
12-Mar-23 17:45 34.961879 -120.427424 183 1317ft 74kts
12-Mar-23 17:46 34.940834 -120.429011 178 1197ft 79kts
12-Mar-23 17:47 34.923908 -120.412517 114 913ft 71kts
12-Mar-23 17:48 34.908570 -120.409972 212 802ft 66kts
12-Mar-23 17:49 34.893779 -120.421530 222 941ft 58kts
12-Mar-23 17:50 34.886114 -120.437936 295 668ft 64kts
12-Mar-23 17:51 34.895334 -120.448883 319 264ft 20kts
12-Mar-23 17:52 34.897860 -120.450273 0 264ft 0kts
12-Mar-23 17:53 34.898796 -120.448923 105 264ft 0kts

Navigation Log

Ident Type
Flight plan parsing failed, navigation log unavailable